createdAt,value
2019-03-08T00:03:48.333Z,99755.70
2019-03-08T00:08:53.782Z,99753.05
2019-03-08T00:13:59.242Z,99754.84
2019-03-08T00:19:04.796Z,99766.33
2019-03-08T00:24:10.201Z,99772.78
2019-03-08T00:29:15.631Z,99776.16
2019-03-08T00:34:21.031Z,99784.17
2019-03-08T00:39:26.417Z,99793.08
2019-03-08T00:44:31.936Z,99791.53
2019-03-08T00:49:37.484Z,99796.51
2019-03-08T00:54:42.840Z,99805.25
2019-03-08T00:59:48.180Z,99801.17
2019-03-08T01:04:53.525Z,99809.70
2019-03-08T01:09:58.906Z,99828.19
2019-03-08T01:15:04.472Z,99831.44
2019-03-08T01:20:11.147Z,99824.42
2019-03-08T01:25:16.538Z,99839.28
2019-03-08T01:30:21.903Z,99848.56
2019-03-08T01:35:27.362Z,99851.99
2019-03-08T01:40:32.831Z,99852.34
2019-03-08T01:45:38.258Z,99868.66
2019-03-08T01:50:43.840Z,99858.81
2019-03-08T01:55:49.317Z,99872.14
2019-03-08T02:00:54.660Z,99886.78
2019-03-08T02:06:00.053Z,99886.05
2019-03-08T02:11:05.556Z,99885.45
2019-03-08T02:16:10.989Z,99896.80
2019-03-08T02:21:16.457Z,99903.02
2019-03-08T02:26:21.837Z,99907.84
2019-03-08T02:31:27.251Z,99913.06
2019-03-08T02:36:32.859Z,99911.16
2019-03-08T02:41:38.234Z,99915.74
2019-03-08T02:46:43.703Z,99923.62
2019-03-08T02:51:49.046Z,99922.95
2019-03-08T02:56:54.429Z,99929.54
2019-03-08T03:01:59.870Z,99933.95
2019-03-08T03:07:05.385Z,99944.53
2019-03-08T03:12:10.819Z,99951.47
2019-03-08T03:17:16.150Z,99955.53
2019-03-08T03:22:21.536Z,99961.39
2019-03-08T03:27:26.884Z,99967.92
2019-03-08T03:32:32.295Z,99972.65
2019-03-08T03:37:37.697Z,99989.70
2019-03-08T03:42:43.164Z,99988.67
2019-03-08T03:47:48.522Z,99997.88
2019-03-08T03:52:53.897Z,100005.45
2019-03-08T03:57:59.281Z,100012.02
2019-03-08T04:03:04.714Z,100024.55
2019-03-08T04:08:10.168Z,100056.34
2019-03-08T04:13:15.545Z,100070.84
2019-03-08T04:18:20.943Z,100071.63
2019-03-08T04:23:26.321Z,100079.79
2019-03-08T04:28:31.737Z,100095.19
2019-03-08T04:33:37.134Z,100107.81
2019-03-08T04:38:42.667Z,100113.91
2019-03-08T04:43:48.137Z,100129.45
2019-03-08T04:48:53.523Z,100140.00
2019-03-08T04:53:59.022Z,100144.81
2019-03-08T04:59:04.515Z,100150.62
2019-03-08T05:04:10.009Z,100154.40
2019-03-08T05:09:15.443Z,100176.69
2019-03-08T05:14:20.819Z,100179.88
2019-03-08T05:19:26.237Z,100178.45
2019-03-08T05:24:31.609Z,100189.17
2019-03-08T05:29:36.963Z,100198.11
2019-03-08T05:34:42.447Z,100202.02
2019-03-08T05:39:47.866Z,100206.77
2019-03-08T05:44:53.330Z,100219.58
2019-03-08T05:49:58.687Z,100225.66
2019-03-08T05:55:04.110Z,100252.97
2019-03-08T06:00:10.786Z,100258.88
2019-03-08T06:05:16.186Z,100265.87
2019-03-08T06:10:37.683Z,100274.03
2019-03-08T06:15:43.142Z,100279.50
2019-03-08T06:20:48.546Z,100296.58
2019-03-08T06:25:54.361Z,100313.95
2019-03-08T06:30:59.724Z,100331.84
2019-03-08T06:36:05.139Z,100348.57
2019-03-08T06:41:10.699Z,100371.69
2019-03-08T06:46:16.117Z,100378.83
2019-03-08T06:51:21.617Z,100398.91
2019-03-08T06:56:27.053Z,100410.23
2019-03-08T07:01:35.739Z,100422.38
2019-03-08T07:06:41.175Z,100429.12
2019-03-08T07:11:46.664Z,100445.02
2019-03-08T07:16:52.057Z,100462.38
2019-03-08T07:22:11.695Z,100475.67
2019-03-08T07:27:24.188Z,100483.59
2019-03-08T07:32:47.130Z,100504.69
2019-03-08T07:38:23.223Z,100521.91
2019-03-08T07:43:50.314Z,100536.50
2019-03-08T07:49:14.583Z,100545.30
2019-03-08T07:54:52.665Z,100557.64
2019-03-08T08:00:10.728Z,100565.25
2019-03-08T08:05:37.521Z,100574.91
2019-03-08T08:10:56.005Z,100594.59
2019-03-08T08:16:29.092Z,100602.30
2019-03-08T08:21:53.383Z,100617.39
2019-03-08T08:27:07.058Z,100613.53
2019-03-08T08:32:29.952Z,100629.19
2019-03-08T08:38:03.159Z,100644.90
2019-03-08T08:43:39.374Z,100661.56
2019-03-08T08:49:01.782Z,100667.20
2019-03-08T08:54:22.039Z,100672.04
2019-03-08T08:59:35.723Z,100680.64
2019-03-08T09:04:54.488Z,100688.94
2019-03-08T09:10:24.079Z,100687.30
2019-03-08T09:15:48.236Z,100711.27
2019-03-08T09:21:21.794Z,100711.58
2019-03-08T09:26:44.854Z,100721.94
2019-03-08T09:32:02.499Z,100731.67
2019-03-08T09:37:22.324Z,100743.47
2019-03-08T09:42:48.998Z,100748.64
2019-03-08T09:48:16.069Z,100764.38
2019-03-08T09:53:32.837Z,100773.11
2019-03-08T09:59:15.639Z,100768.19
2019-03-08T10:04:49.067Z,100777.02
2019-03-08T10:10:07.395Z,100775.94
2019-03-08T10:15:37.527Z,100786.41
2019-03-08T10:21:02.013Z,100788.08
2019-03-08T10:26:24.297Z,100811.47
2019-03-08T10:31:44.864Z,100810.56
2019-03-08T10:37:05.503Z,100823.68
2019-03-08T10:42:29.483Z,100832.34
2019-03-08T10:47:45.095Z,100843.00
2019-03-08T10:53:00.229Z,100845.54
2019-03-08T10:58:24.524Z,100860.09
2019-03-08T11:03:51.886Z,100861.44
2019-03-08T11:09:04.616Z,100864.86
2019-03-08T11:14:19.575Z,100871.70
2019-03-08T11:19:35.342Z,100873.94
2019-03-08T11:24:51.096Z,100884.92
2019-03-08T11:30:18.460Z,100889.01
2019-03-08T11:35:45.344Z,100889.43
2019-03-08T11:41:14.490Z,100896.89
2019-03-08T11:46:36.428Z,100906.12
2019-03-08T11:51:49.898Z,100920.02
2019-03-08T11:57:20.239Z,100938.91
2019-03-08T12:02:56.419Z,100942.03
2019-03-08T12:08:17.640Z,100941.86
2019-03-08T12:13:39.834Z,100943.25
2019-03-08T12:19:13.123Z,100933.16
2019-03-08T12:24:28.599Z,100930.23
2019-03-08T12:29:44.142Z,100927.06
2019-03-08T12:35:07.769Z,100919.61
2019-03-08T12:40:21.797Z,100915.50
2019-03-08T12:45:44.394Z,100923.16
2019-03-08T12:51:07.265Z,100918.63
2019-03-08T12:56:31.544Z,100924.59
2019-03-08T13:02:06.377Z,100912.02
2019-03-08T13:07:20.350Z,100914.20
2019-03-08T13:12:25.801Z,100911.80
2019-03-08T13:17:31.221Z,100921.37
2019-03-08T13:22:36.568Z,100915.88
2019-03-08T13:27:41.946Z,100912.92
2019-03-08T13:32:47.924Z,100913.85
2019-03-08T13:37:53.354Z,100919.53
2019-03-08T13:42:58.772Z,100926.66
2019-03-08T13:48:04.182Z,100925.43
2019-03-08T13:53:09.642Z,100919.75
2019-03-08T13:58:15.001Z,100917.68
2019-03-08T14:03:20.472Z,100932.74
2019-03-08T14:08:25.887Z,100927.63
2019-03-08T14:13:31.257Z,100922.64
2019-03-08T14:18:36.641Z,100918.95
2019-03-08T14:23:42.025Z,100917.37
2019-03-08T14:28:47.492Z,100917.07
2019-03-08T14:33:52.879Z,100909.90
2019-03-08T14:38:58.317Z,100908.70
2019-03-08T14:44:15.807Z,100906.27
2019-03-08T14:49:22.765Z,100914.52
2019-03-08T14:54:28.346Z,100904.05
2019-03-08T14:59:33.852Z,100898.11
2019-03-08T15:04:39.417Z,100901.06
2019-03-08T15:09:44.882Z,100895.84
2019-03-08T15:14:50.443Z,100904.27
2019-03-08T15:19:55.934Z,100903.31
2019-03-08T15:25:01.408Z,100911.35
2019-03-08T15:30:09.264Z,100924.04
2019-03-08T15:35:14.750Z,100924.31
2019-03-08T15:40:20.823Z,100924.09
2019-03-08T15:45:26.413Z,100918.25
2019-03-08T15:50:31.780Z,100922.78
2019-03-08T15:55:37.198Z,100920.44
2019-03-08T16:00:42.778Z,100917.67
2019-03-08T16:05:48.271Z,100929.90
2019-03-08T16:10:53.635Z,100929.64
2019-03-08T16:15:59.196Z,100925.84
2019-03-08T16:21:04.731Z,100921.32
2019-03-08T16:26:10.085Z,100915.76
2019-03-08T16:31:34.345Z,100914.34
2019-03-08T16:36:57.032Z,100915.95
2019-03-08T16:42:30.234Z,100915.01
2019-03-08T16:47:52.869Z,100907.46
2019-03-08T16:53:03.455Z,100903.64
2019-03-08T16:58:26.022Z,100896.09
2019-03-08T17:03:38.717Z,100895.52
2019-03-08T17:09:11.718Z,100899.39
2019-03-08T17:14:34.615Z,100907.70
2019-03-08T17:19:59.164Z,100916.52
2019-03-08T17:25:29.352Z,100919.72
2019-03-08T17:30:44.288Z,100928.77
2019-03-08T17:36:27.519Z,100935.43
2019-03-08T17:42:06.328Z,100940.38
2019-03-08T17:47:25.391Z,100940.42
2019-03-08T17:52:49.450Z,100952.23
2019-03-08T17:58:12.381Z,100957.24
2019-03-08T18:03:43.018Z,100951.28
2019-03-08T18:09:11.198Z,100953.50
2019-03-08T18:14:27.428Z,100951.59
2019-03-08T18:19:39.776Z,100950.70
2019-03-08T18:24:57.294Z,100958.58
2019-03-08T18:30:10.399Z,100955.42
2019-03-08T18:35:25.925Z,100948.66
2019-03-08T18:40:48.657Z,100947.09
2019-03-08T18:46:11.591Z,100942.73
2019-03-08T18:51:34.407Z,100946.25
2019-03-08T18:56:48.914Z,100947.53
2019-03-08T19:02:22.665Z,100945.17
2019-03-08T19:07:46.075Z,100950.72
2019-03-08T19:13:10.598Z,100953.94
2019-03-08T19:18:33.095Z,100976.08
2019-03-08T19:24:12.576Z,100976.91
2019-03-08T19:29:48.688Z,100957.61
2019-03-08T19:35:18.986Z,100949.48
2019-03-08T19:40:46.907Z,100939.72
2019-03-08T19:46:11.282Z,100937.09
2019-03-08T19:51:35.295Z,100930.72
2019-03-08T19:57:01.422Z,100918.62
2019-03-08T20:02:41.817Z,100917.95
2019-03-08T20:07:59.262Z,100909.75
2019-03-08T20:13:26.591Z,100901.82
2019-03-08T20:18:50.297Z,100902.13
2019-03-08T20:24:08.124Z,100897.86
2019-03-08T20:29:32.556Z,100893.89
2019-03-08T20:34:56.862Z,100890.28
2019-03-08T20:40:21.283Z,100887.63
2019-03-08T20:45:49.031Z,100891.53
2019-03-08T20:50:54.454Z,100882.47
2019-03-08T20:56:00.005Z,100874.29
2019-03-08T21:01:05.361Z,100872.30
2019-03-08T21:06:10.889Z,100854.05
2019-03-08T21:11:16.274Z,100847.72
2019-03-08T21:16:21.722Z,100844.05
2019-03-08T21:21:27.316Z,100846.86
2019-03-08T21:26:32.829Z,100849.03
2019-03-08T21:31:38.199Z,100846.87
2019-03-08T21:36:44.067Z,100843.00
2019-03-08T21:41:49.472Z,100836.73
2019-03-08T21:46:54.932Z,100835.98
2019-03-08T21:52:00.389Z,100815.28
2019-03-08T21:57:05.755Z,100808.94
2019-03-08T22:02:11.406Z,100804.73
2019-03-08T22:07:16.794Z,100785.95
2019-03-08T22:12:22.274Z,100780.54
2019-03-08T22:17:27.781Z,100777.17
2019-03-08T22:22:35.884Z,100763.35
2019-03-08T22:27:41.490Z,100749.19
2019-03-08T22:32:46.846Z,100746.44
2019-03-08T22:37:52.370Z,100732.27
2019-03-08T22:42:57.764Z,100722.69
2019-03-08T22:48:03.171Z,100713.06
2019-03-08T22:53:08.532Z,100708.86
2019-03-08T22:58:13.921Z,100695.50
2019-03-08T23:03:19.896Z,100687.06
2019-03-08T23:08:25.400Z,100680.77
2019-03-08T23:13:30.966Z,100684.81
2019-03-08T23:18:36.327Z,100681.05
2019-03-08T23:23:41.708Z,100669.36
2019-03-08T23:28:50.690Z,100649.44
2019-03-08T23:33:56.142Z,100638.14
2019-03-08T23:39:01.573Z,100628.05
2019-03-08T23:44:07.028Z,100615.54
2019-03-08T23:49:12.532Z,100610.63
2019-03-08T23:54:17.911Z,100611.72
2019-03-08T23:59:23.321Z,100611.25
